sensor_id;sensor_type;location;lat;lon;timestamp;P1;durP1;ratioP1;P2;durP2;ratioP2
51915;SDS011;37942;53.218;6.548;2022-10-16T00:01:05;13.82;;;3.85;;
51915;SDS011;37942;53.218;6.548;2022-10-16T00:03:31;14.95;;;3.88;;
51915;SDS011;37942;53.218;6.548;2022-10-16T00:05:58;14.52;;;3.80;;
51915;SDS011;37942;53.218;6.548;2022-10-16T00:08:25;14.93;;;4.05;;
51915;SDS011;37942;53.218;6.548;2022-10-16T00:10:51;13.57;;;4.20;;
51915;SDS011;37942;53.218;6.548;2022-10-16T00:13:17;14.05;;;4.00;;
51915;SDS011;37942;53.218;6.548;2022-10-16T00:15:44;16.50;;;4.20;;
51915;SDS011;37942;53.218;6.548;2022-10-16T00:18:11;14.35;;;3.90;;
51915;SDS011;37942;53.218;6.548;2022-10-16T00:20:39;16.08;;;3.60;;
51915;SDS011;37942;53.218;6.548;2022-10-16T00:23:05;13.02;;;3.65;;
51915;SDS011;37942;53.218;6.548;2022-10-16T00:25:31;13.90;;;3.72;;
51915;SDS011;37942;53.218;6.548;2022-10-16T00:30:23;15.63;;;3.75;;
51915;SDS011;37942;53.218;6.548;2022-10-16T00:32:52;14.30;;;4.00;;
51915;SDS011;37942;53.218;6.548;2022-10-16T00:35:18;16.23;;;3.92;;
51915;SDS011;37942;53.218;6.548;2022-10-16T00:37:44;15.48;;;4.05;;
51915;SDS011;37942;53.218;6.548;2022-10-16T00:40:10;15.55;;;3.60;;
51915;SDS011;37942;53.218;6.548;2022-10-16T00:42:36;18.98;;;4.50;;
51915;SDS011;37942;53.218;6.548;2022-10-16T00:45:02;12.00;;;3.40;;
51915;SDS011;37942;53.218;6.548;2022-10-16T00:49:56;12.55;;;3.20;;
51915;SDS011;37942;53.218;6.548;2022-10-16T00:52:24;15.43;;;3.30;;
51915;SDS011;37942;53.218;6.548;2022-10-16T00:54:50;11.15;;;3.10;;
51915;SDS011;37942;53.218;6.548;2022-10-16T00:57:17;15.00;;;3.33;;
51915;SDS011;37942;53.218;6.548;2022-10-16T00:59:43;13.63;;;3.70;;
51915;SDS011;37942;53.218;6.548;2022-10-16T01:02:10;15.68;;;3.40;;
51915;SDS011;37942;53.218;6.548;2022-10-16T01:04:38;19.23;;;3.85;;
51915;SDS011;37942;53.218;6.548;2022-10-16T01:09:40;16.38;;;3.50;;
51915;SDS011;37942;53.218;6.548;2022-10-16T01:12:14;12.27;;;3.10;;
51915;SDS011;37942;53.218;6.548;2022-10-16T01:14:55;14.93;;;3.28;;
51915;SDS011;37942;53.218;6.548;2022-10-16T01:20:20;15.57;;;3.30;;
51915;SDS011;37942;53.218;6.548;2022-10-16T01:28:03;11.95;;;3.00;;
51915;SDS011;37942;53.218;6.548;2022-10-16T01:30:30;20.55;;;3.35;;
51915;SDS011;37942;53.218;6.548;2022-10-16T01:33:02;12.25;;;3.20;;
51915;SDS011;37942;53.218;6.548;2022-10-16T01:35:33;15.38;;;3.25;;
51915;SDS011;37942;53.218;6.548;2022-10-16T01:40:29;13.13;;;3.28;;
51915;SDS011;37942;53.218;6.548;2022-10-16T01:43:11;11.85;;;3.45;;
51915;SDS011;37942;53.218;6.548;2022-10-16T01:45:38;13.23;;;3.72;;
51915;SDS011;37942;53.218;6.548;2022-10-16T01:48:05;12.07;;;3.40;;
51915;SDS011;37942;53.218;6.548;2022-10-16T01:50:35;13.75;;;3.22;;
51915;SDS011;37942;53.218;6.548;2022-10-16T01:53:02;13.18;;;3.40;;
51915;SDS011;37942;53.218;6.548;2022-10-16T01:55:30;11.75;;;2.95;;
51915;SDS011;37942;53.218;6.548;2022-10-16T01:57:56;13.52;;;3.38;;
51915;SDS011;37942;53.218;6.548;2022-10-16T02:00:24;11.13;;;3.28;;
51915;SDS011;37942;53.218;6.548;2022-10-16T02:02:53;10.65;;;2.95;;
51915;SDS011;37942;53.218;6.548;2022-10-16T02:05:25;12.60;;;3.30;;
51915;SDS011;37942;53.218;6.548;2022-10-16T02:07:52;12.85;;;3.63;;
51915;SDS011;37942;53.218;6.548;2022-10-16T02:10:19;12.18;;;3.58;;
51915;SDS011;37942;53.218;6.548;2022-10-16T02:12:47;11.88;;;2.95;;
51915;SDS011;37942;53.218;6.548;2022-10-16T02:15:15;13.23;;;3.33;;
51915;SDS011;37942;53.218;6.548;2022-10-16T02:17:41;11.15;;;3.28;;
51915;SDS011;37942;53.218;6.548;2022-10-16T02:20:07;11.52;;;3.90;;
51915;SDS011;37942;53.218;6.548;2022-10-16T02:25:11;13.00;;;3.20;;
51915;SDS011;37942;53.218;6.548;2022-10-16T02:27:48;10.65;;;3.13;;
51915;SDS011;37942;53.218;6.548;2022-10-16T02:30:22;14.20;;;3.00;;
51915;SDS011;37942;53.218;6.548;2022-10-16T02:32:50;11.80;;;3.30;;
51915;SDS011;37942;53.218;6.548;2022-10-16T02:35:18;10.48;;;3.10;;
51915;SDS011;37942;53.218;6.548;2022-10-16T02:37:46;11.27;;;2.70;;
51915;SDS011;37942;53.218;6.548;2022-10-16T02:40:12;8.45;;;3.03;;
51915;SDS011;37942;53.218;6.548;2022-10-16T02:42:39;13.07;;;3.00;;
51915;SDS011;37942;53.218;6.548;2022-10-16T02:45:06;13.40;;;3.20;;
51915;SDS011;37942;53.218;6.548;2022-10-16T02:47:32;10.07;;;3.03;;
51915;SDS011;37942;53.218;6.548;2022-10-16T02:49:58;9.70;;;2.90;;
51915;SDS011;37942;53.218;6.548;2022-10-16T02:52:24;12.27;;;3.15;;
51915;SDS011;37942;53.218;6.548;2022-10-16T02:54:50;11.32;;;3.00;;
51915;SDS011;37942;53.218;6.548;2022-10-16T02:57:17;11.77;;;3.28;;
51915;SDS011;37942;53.218;6.548;2022-10-16T02:59:43;10.57;;;2.78;;
51915;SDS011;37942;53.218;6.548;2022-10-16T03:02:09;11.30;;;3.63;;
51915;SDS011;37942;53.218;6.548;2022-10-16T03:04:35;10.18;;;3.25;;
51915;SDS011;37942;53.218;6.548;2022-10-16T03:07:01;11.82;;;2.80;;
51915;SDS011;37942;53.218;6.548;2022-10-16T03:09:28;12.90;;;3.08;;
51915;SDS011;37942;53.218;6.548;2022-10-16T03:11:54;9.82;;;3.00;;
51915;SDS011;37942;53.218;6.548;2022-10-16T03:14:20;11.05;;;3.00;;
51915;SDS011;37942;53.218;6.548;2022-10-16T03:16:46;11.38;;;2.90;;
51915;SDS011;37942;53.218;6.548;2022-10-16T03:19:15;9.48;;;2.63;;
51915;SDS011;37942;53.218;6.548;2022-10-16T03:21:42;8.45;;;2.83;;
51915;SDS011;37942;53.218;6.548;2022-10-16T03:24:08;10.55;;;2.90;;
51915;SDS011;37942;53.218;6.548;2022-10-16T03:26:34;8.70;;;2.70;;
51915;SDS011;37942;53.218;6.548;2022-10-16T03:29:00;9.30;;;2.70;;
51915;SDS011;37942;53.218;6.548;2022-10-16T03:31:28;9.77;;;2.90;;
51915;SDS011;37942;53.218;6.548;2022-10-16T03:33:54;13.10;;;2.97;;
51915;SDS011;37942;53.218;6.548;2022-10-16T03:36:20;9.00;;;2.95;;
51915;SDS011;37942;53.218;6.548;2022-10-16T03:38:46;9.75;;;3.00;;
51915;SDS011;37942;53.218;6.548;2022-10-16T03:41:12;8.40;;;2.63;;
51915;SDS011;37942;53.218;6.548;2022-10-16T03:43:39;11.77;;;3.15;;
51915;SDS011;37942;53.218;6.548;2022-10-16T03:46:05;8.43;;;2.67;;
51915;SDS011;37942;53.218;6.548;2022-10-16T03:48:31;9.68;;;2.85;;
51915;SDS011;37942;53.218;6.548;2022-10-16T03:50:57;8.15;;;2.78;;
51915;SDS011;37942;53.218;6.548;2022-10-16T03:55:49;10.50;;;3.10;;
51915;SDS011;37942;53.218;6.548;2022-10-16T03:58:15;11.45;;;3.15;;
51915;SDS011;37942;53.218;6.548;2022-10-16T04:00:44;10.55;;;3.20;;
51915;SDS011;37942;53.218;6.548;2022-10-16T04:03:12;10.98;;;3.08;;
51915;SDS011;37942;53.218;6.548;2022-10-16T04:05:38;11.18;;;2.95;;
51915;SDS011;37942;53.218;6.548;2022-10-16T04:08:04;8.40;;;2.95;;
51915;SDS011;37942;53.218;6.548;2022-10-16T04:10:30;8.70;;;2.90;;
51915;SDS011;37942;53.218;6.548;2022-10-16T04:12:57;10.57;;;3.03;;
51915;SDS011;37942;53.218;6.548;2022-10-16T04:15:23;11.32;;;3.00;;
51915;SDS011;37942;53.218;6.548;2022-10-16T04:17:50;10.68;;;3.15;;
51915;SDS011;37942;53.218;6.548;2022-10-16T04:20:16;10.30;;;3.25;;
51915;SDS011;37942;53.218;6.548;2022-10-16T04:22:42;7.60;;;2.80;;
51915;SDS011;37942;53.218;6.548;2022-10-16T04:25:08;9.18;;;3.30;;
51915;SDS011;37942;53.218;6.548;2022-10-16T04:27:35;11.27;;;3.15;;
51915;SDS011;37942;53.218;6.548;2022-10-16T04:30:01;11.35;;;3.20;;
51915;SDS011;37942;53.218;6.548;2022-10-16T04:32:27;10.82;;;2.92;;
51915;SDS011;37942;53.218;6.548;2022-10-16T04:34:53;9.77;;;2.90;;
51915;SDS011;37942;53.218;6.548;2022-10-16T04:37:22;10.32;;;3.08;;
51915;SDS011;37942;53.218;6.548;2022-10-16T04:39:48;9.80;;;3.20;;
51915;SDS011;37942;53.218;6.548;2022-10-16T04:42:14;11.85;;;3.30;;
51915;SDS011;37942;53.218;6.548;2022-10-16T04:44:40;12.93;;;3.30;;
51915;SDS011;37942;53.218;6.548;2022-10-16T04:47:06;12.02;;;3.30;;
51915;SDS011;37942;53.218;6.548;2022-10-16T04:49:33;10.82;;;3.35;;
51915;SDS011;37942;53.218;6.548;2022-10-16T04:51:59;10.38;;;3.10;;
51915;SDS011;37942;53.218;6.548;2022-10-16T04:54:25;13.10;;;3.00;;
51915;SDS011;37942;53.218;6.548;2022-10-16T04:56:51;10.88;;;3.47;;
51915;SDS011;37942;53.218;6.548;2022-10-16T04:59:17;11.63;;;3.15;;
51915;SDS011;37942;53.218;6.548;2022-10-16T05:01:43;10.98;;;3.47;;
51915;SDS011;37942;53.218;6.548;2022-10-16T05:04:10;13.10;;;3.90;;
51915;SDS011;37942;53.218;6.548;2022-10-16T05:06:36;12.02;;;3.30;;
51915;SDS011;37942;53.218;6.548;2022-10-16T05:09:03;10.80;;;3.25;;
51915;SDS011;37942;53.218;6.548;2022-10-16T05:13:56;13.32;;;3.60;;
51915;SDS011;37942;53.218;6.548;2022-10-16T05:16:22;11.40;;;3.45;;
51915;SDS011;37942;53.218;6.548;2022-10-16T05:18:48;10.63;;;3.50;;
51915;SDS011;37942;53.218;6.548;2022-10-16T05:21:14;11.40;;;3.72;;
51915;SDS011;37942;53.218;6.548;2022-10-16T05:23:40;11.98;;;3.63;;
51915;SDS011;37942;53.218;6.548;2022-10-16T05:26:06;11.60;;;3.70;;
51915;SDS011;37942;53.218;6.548;2022-10-16T05:28:32;10.63;;;3.60;;
51915;SDS011;37942;53.218;6.548;2022-10-16T05:30:58;12.82;;;3.95;;
51915;SDS011;37942;53.218;6.548;2022-10-16T05:33:25;11.55;;;3.50;;
51915;SDS011;37942;53.218;6.548;2022-10-16T05:38:17;11.50;;;3.80;;
51915;SDS011;37942;53.218;6.548;2022-10-16T05:40:50;12.15;;;3.70;;
51915;SDS011;37942;53.218;6.548;2022-10-16T05:43:16;9.25;;;3.65;;
51915;SDS011;37942;53.218;6.548;2022-10-16T05:45:42;9.13;;;3.53;;
51915;SDS011;37942;53.218;6.548;2022-10-16T05:48:08;9.73;;;3.60;;
51915;SDS011;37942;53.218;6.548;2022-10-16T05:50:34;10.70;;;4.10;;
51915;SDS011;37942;53.218;6.548;2022-10-16T05:53:00;10.38;;;3.92;;
51915;SDS011;37942;53.218;6.548;2022-10-16T05:55:26;12.13;;;4.07;;
51915;SDS011;37942;53.218;6.548;2022-10-16T05:57:55;13.02;;;4.40;;
51915;SDS011;37942;53.218;6.548;2022-10-16T06:00:21;12.95;;;4.00;;
51915;SDS011;37942;53.218;6.548;2022-10-16T06:02:47;11.13;;;4.43;;
51915;SDS011;37942;53.218;6.548;2022-10-16T06:05:14;13.45;;;4.55;;
51915;SDS011;37942;53.218;6.548;2022-10-16T06:07:40;13.38;;;3.80;;
51915;SDS011;37942;53.218;6.548;2022-10-16T06:10:06;13.05;;;4.28;;
51915;SDS011;37942;53.218;6.548;2022-10-16T06:14:58;12.73;;;4.40;;
51915;SDS011;37942;53.218;6.548;2022-10-16T06:17:24;13.70;;;4.80;;
51915;SDS011;37942;53.218;6.548;2022-10-16T06:19:50;14.32;;;4.78;;
51915;SDS011;37942;53.218;6.548;2022-10-16T06:22:16;10.98;;;4.30;;
51915;SDS011;37942;53.218;6.548;2022-10-16T06:24:42;12.43;;;4.80;;
51915;SDS011;37942;53.218;6.548;2022-10-16T06:27:08;10.02;;;4.30;;
51915;SDS011;37942;53.218;6.548;2022-10-16T06:29:34;13.50;;;5.13;;
51915;SDS011;37942;53.218;6.548;2022-10-16T06:32:01;13.07;;;5.05;;
51915;SDS011;37942;53.218;6.548;2022-10-16T06:34:27;13.18;;;5.15;;
51915;SDS011;37942;53.218;6.548;2022-10-16T06:36:53;14.40;;;5.50;;
51915;SDS011;37942;53.218;6.548;2022-10-16T06:39:19;13.00;;;5.10;;
51915;SDS011;37942;53.218;6.548;2022-10-16T06:41:45;11.32;;;4.80;;
51915;SDS011;37942;53.218;6.548;2022-10-16T06:44:11;12.85;;;5.20;;
51915;SDS011;37942;53.218;6.548;2022-10-16T06:46:37;14.73;;;4.53;;
51915;SDS011;37942;53.218;6.548;2022-10-16T06:49:03;14.82;;;5.05;;
51915;SDS011;37942;53.218;6.548;2022-10-16T06:51:29;12.50;;;4.53;;
51915;SDS011;37942;53.218;6.548;2022-10-16T06:53:57;13.63;;;4.78;;
51915;SDS011;37942;53.218;6.548;2022-10-16T06:56:26;13.63;;;4.43;;
51915;SDS011;37942;53.218;6.548;2022-10-16T06:58:53;14.32;;;4.57;;
51915;SDS011;37942;53.218;6.548;2022-10-16T07:01:20;13.27;;;4.85;;
51915;SDS011;37942;53.218;6.548;2022-10-16T07:03:47;13.57;;;4.32;;
51915;SDS011;37942;53.218;6.548;2022-10-16T07:06:14;12.38;;;4.22;;
51915;SDS011;37942;53.218;6.548;2022-10-16T07:08:41;13.88;;;4.10;;
51915;SDS011;37942;53.218;6.548;2022-10-16T07:11:08;13.88;;;4.30;;
51915;SDS011;37942;53.218;6.548;2022-10-16T07:13:35;12.13;;;4.50;;
51915;SDS011;37942;53.218;6.548;2022-10-16T07:16:05;12.57;;;4.22;;
51915;SDS011;37942;53.218;6.548;2022-10-16T07:18:31;15.38;;;5.25;;
51915;SDS011;37942;53.218;6.548;2022-10-16T07:23:24;13.48;;;3.78;;
51915;SDS011;37942;53.218;6.548;2022-10-16T07:25:53;14.05;;;4.25;;
51915;SDS011;37942;53.218;6.548;2022-10-16T07:28:20;11.35;;;4.20;;
51915;SDS011;37942;53.218;6.548;2022-10-16T07:33:12;13.65;;;4.32;;
51915;SDS011;37942;53.218;6.548;2022-10-16T07:35:46;12.77;;;4.28;;
51915;SDS011;37942;53.218;6.548;2022-10-16T07:38:13;13.30;;;4.32;;
51915;SDS011;37942;53.218;6.548;2022-10-16T07:40:39;12.88;;;4.32;;
51915;SDS011;37942;53.218;6.548;2022-10-16T07:43:05;15.30;;;4.45;;
51915;SDS011;37942;53.218;6.548;2022-10-16T07:45:31;11.73;;;4.28;;
51915;SDS011;37942;53.218;6.548;2022-10-16T07:47:57;11.43;;;4.45;;
51915;SDS011;37942;53.218;6.548;2022-10-16T07:50:23;14.85;;;4.55;;
51915;SDS011;37942;53.218;6.548;2022-10-16T07:52:49;10.85;;;4.40;;
51915;SDS011;37942;53.218;6.548;2022-10-16T07:55:15;13.77;;;5.35;;
51915;SDS011;37942;53.218;6.548;2022-10-16T07:57:41;11.95;;;4.38;;
51915;SDS011;37942;53.218;6.548;2022-10-16T08:00:07;12.77;;;5.20;;
51915;SDS011;37942;53.218;6.548;2022-10-16T08:02:38;12.90;;;4.18;;
51915;SDS011;37942;53.218;6.548;2022-10-16T08:07:30;14.32;;;4.82;;
51915;SDS011;37942;53.218;6.548;2022-10-16T08:09:56;15.02;;;4.85;;
51915;SDS011;37942;53.218;6.548;2022-10-16T08:12:24;13.68;;;5.32;;
51915;SDS011;37942;53.218;6.548;2022-10-16T08:14:50;14.77;;;5.45;;
51915;SDS011;37942;53.218;6.548;2022-10-16T08:17:16;14.27;;;4.88;;
51915;SDS011;37942;53.218;6.548;2022-10-16T08:19:48;15.00;;;5.07;;
51915;SDS011;37942;53.218;6.548;2022-10-16T08:22:14;9.88;;;4.50;;
51915;SDS011;37942;53.218;6.548;2022-10-16T08:24:40;16.27;;;5.00;;
51915;SDS011;37942;53.218;6.548;2022-10-16T08:27:06;11.23;;;4.60;;
51915;SDS011;37942;53.218;6.548;2022-10-16T08:29:34;12.73;;;4.75;;
51915;SDS011;37942;53.218;6.548;2022-10-16T08:32:00;12.38;;;4.18;;
51915;SDS011;37942;53.218;6.548;2022-10-16T08:34:26;12.57;;;4.50;;
51915;SDS011;37942;53.218;6.548;2022-10-16T08:36:55;13.75;;;4.55;;
51915;SDS011;37942;53.218;6.548;2022-10-16T08:39:21;11.07;;;3.83;;
51915;SDS011;37942;53.218;6.548;2022-10-16T08:49:14;13.93;;;4.38;;
51915;SDS011;37942;53.218;6.548;2022-10-16T08:51:40;14.90;;;3.95;;
51915;SDS011;37942;53.218;6.548;2022-10-16T08:56:54;14.70;;;3.38;;
51915;SDS011;37942;53.218;6.548;2022-10-16T08:59:20;10.95;;;3.28;;
51915;SDS011;37942;53.218;6.548;2022-10-16T09:01:47;17.23;;;3.50;;
51915;SDS011;37942;53.218;6.548;2022-10-16T09:06:57;14.10;;;3.60;;
51915;SDS011;37942;53.218;6.548;2022-10-16T09:19:38;13.27;;;3.13;;
51915;SDS011;37942;53.218;6.548;2022-10-16T09:22:14;12.88;;;3.35;;
51915;SDS011;37942;53.218;6.548;2022-10-16T09:24:40;13.65;;;3.63;;
51915;SDS011;37942;53.218;6.548;2022-10-16T09:27:10;12.93;;;3.83;;
51915;SDS011;37942;53.218;6.548;2022-10-16T09:29:37;11.45;;;3.35;;
51915;SDS011;37942;53.218;6.548;2022-10-16T09:32:13;13.43;;;3.80;;
51915;SDS011;37942;53.218;6.548;2022-10-16T09:34:50;12.32;;;3.60;;
51915;SDS011;37942;53.218;6.548;2022-10-16T09:37:17;16.00;;;3.60;;
51915;SDS011;37942;53.218;6.548;2022-10-16T09:39:51;15.23;;;3.67;;
51915;SDS011;37942;53.218;6.548;2022-10-16T09:42:21;18.75;;;3.90;;
51915;SDS011;37942;53.218;6.548;2022-10-16T09:44:49;15.38;;;4.43;;
51915;SDS011;37942;53.218;6.548;2022-10-16T09:47:19;11.82;;;3.15;;
51915;SDS011;37942;53.218;6.548;2022-10-16T09:52:19;14.10;;;3.33;;
51915;SDS011;37942;53.218;6.548;2022-10-16T09:54:51;14.60;;;3.95;;
51915;SDS011;37942;53.218;6.548;2022-10-16T09:57:18;20.88;;;4.00;;
51915;SDS011;37942;53.218;6.548;2022-10-16T09:59:51;18.08;;;3.55;;
51915;SDS011;37942;53.218;6.548;2022-10-16T10:02:18;16.60;;;3.30;;
51915;SDS011;37942;53.218;6.548;2022-10-16T10:04:49;16.02;;;3.70;;
51915;SDS011;37942;53.218;6.548;2022-10-16T10:07:17;16.23;;;3.75;;
51915;SDS011;37942;53.218;6.548;2022-10-16T10:09:44;20.40;;;4.40;;
51915;SDS011;37942;53.218;6.548;2022-10-16T10:12:16;16.80;;;3.95;;
51915;SDS011;37942;53.218;6.548;2022-10-16T10:14:44;22.92;;;3.88;;
51915;SDS011;37942;53.218;6.548;2022-10-16T10:17:12;20.02;;;3.78;;
51915;SDS011;37942;53.218;6.548;2022-10-16T10:19:49;21.92;;;3.65;;
51915;SDS011;37942;53.218;6.548;2022-10-16T10:32:34;17.27;;;4.00;;
51915;SDS011;37942;53.218;6.548;2022-10-16T10:35:13;18.02;;;3.55;;
51915;SDS011;37942;53.218;6.548;2022-10-16T10:40:23;20.52;;;3.75;;
51915;SDS011;37942;53.218;6.548;2022-10-16T10:42:56;21.23;;;4.13;;
51915;SDS011;37942;53.218;6.548;2022-10-16T10:45:36;16.60;;;3.05;;
51915;SDS011;37942;53.218;6.548;2022-10-16T10:50:49;17.70;;;3.95;;
51915;SDS011;37942;53.218;6.548;2022-10-16T10:53:21;14.75;;;3.22;;
51915;SDS011;37942;53.218;6.548;2022-10-16T10:56:42;19.75;;;3.75;;
51915;SDS011;37942;53.218;6.548;2022-10-16T11:01:12;28.42;;;3.97;;
51915;SDS011;37942;53.218;6.548;2022-10-16T11:08:58;19.70;;;3.92;;
51915;SDS011;37942;53.218;6.548;2022-10-16T11:11:27;21.67;;;4.13;;
51915;SDS011;37942;53.218;6.548;2022-10-16T11:14:14;18.85;;;3.47;;
51915;SDS011;37942;53.218;6.548;2022-10-16T11:16:43;17.05;;;3.22;;
51915;SDS011;37942;53.218;6.548;2022-10-16T11:19:12;17.88;;;2.92;;
51915;SDS011;37942;53.218;6.548;2022-10-16T11:21:41;17.38;;;2.97;;
51915;SDS011;37942;53.218;6.548;2022-10-16T11:24:16;14.00;;;3.33;;
51915;SDS011;37942;53.218;6.548;2022-10-16T11:26:44;18.10;;;3.67;;
51915;SDS011;37942;53.218;6.548;2022-10-16T11:29:13;22.30;;;3.80;;
51915;SDS011;37942;53.218;6.548;2022-10-16T11:31:43;19.92;;;3.40;;
51915;SDS011;37942;53.218;6.548;2022-10-16T11:34:19;17.40;;;3.47;;
51915;SDS011;37942;53.218;6.548;2022-10-16T11:36:49;15.77;;;3.28;;
51915;SDS011;37942;53.218;6.548;2022-10-16T11:39:19;22.65;;;3.83;;
51915;SDS011;37942;53.218;6.548;2022-10-16T11:41:47;18.65;;;3.38;;
51915;SDS011;37942;53.218;6.548;2022-10-16T11:49:37;18.27;;;3.80;;
51915;SDS011;37942;53.218;6.548;2022-10-16T11:57:10;17.38;;;3.47;;
51915;SDS011;37942;53.218;6.548;2022-10-16T11:59:42;18.67;;;3.17;;
51915;SDS011;37942;53.218;6.548;2022-10-16T12:05:01;16.83;;;3.20;;
51915;SDS011;37942;53.218;6.548;2022-10-16T12:07:34;22.88;;;3.17;;
51915;SDS011;37942;53.218;6.548;2022-10-16T12:10:22;15.75;;;3.65;;
51915;SDS011;37942;53.218;6.548;2022-10-16T12:12:49;17.58;;;4.15;;
51915;SDS011;37942;53.218;6.548;2022-10-16T12:17:41;19.60;;;3.53;;
51915;SDS011;37942;53.218;6.548;2022-10-16T12:25:27;19.65;;;3.90;;
51915;SDS011;37942;53.218;6.548;2022-10-16T12:27:55;16.63;;;3.20;;
51915;SDS011;37942;53.218;6.548;2022-10-16T12:30:26;16.98;;;3.20;;
51915;SDS011;37942;53.218;6.548;2022-10-16T12:32:53;20.08;;;3.70;;
51915;SDS011;37942;53.218;6.548;2022-10-16T12:35:23;16.98;;;4.07;;
51915;SDS011;37942;53.218;6.548;2022-10-16T12:37:51;21.52;;;3.55;;
51915;SDS011;37942;53.218;6.548;2022-10-16T12:40:31;16.92;;;3.33;;
51915;SDS011;37942;53.218;6.548;2022-10-16T12:42:57;20.63;;;3.72;;
51915;SDS011;37942;53.218;6.548;2022-10-16T12:45:31;17.95;;;3.67;;
51915;SDS011;37942;53.218;6.548;2022-10-16T12:47:59;19.15;;;3.78;;
51915;SDS011;37942;53.218;6.548;2022-10-16T12:50:36;21.90;;;3.50;;
51915;SDS011;37942;53.218;6.548;2022-10-16T12:53:03;19.77;;;3.38;;
51915;SDS011;37942;53.218;6.548;2022-10-16T12:55:35;20.50;;;3.90;;
51915;SDS011;37942;53.218;6.548;2022-10-16T12:58:10;15.57;;;3.55;;
51915;SDS011;37942;53.218;6.548;2022-10-16T13:00:54;17.65;;;3.72;;
51915;SDS011;37942;53.218;6.548;2022-10-16T13:06:04;15.85;;;3.05;;
51915;SDS011;37942;53.218;6.548;2022-10-16T13:19:29;15.32;;;3.10;;
51915;SDS011;37942;53.218;6.548;2022-10-16T13:21:43;15.32;;;3.03;;
51915;SDS011;37942;53.218;6.548;2022-10-16T13:29:05;15.13;;;3.45;;
51915;SDS011;37942;53.218;6.548;2022-10-16T13:33:59;15.82;;;3.38;;
51915;SDS011;37942;53.218;6.548;2022-10-16T13:36:30;17.10;;;3.67;;
51915;SDS011;37942;53.218;6.548;2022-10-16T13:39:44;20.30;;;3.58;;
51915;SDS011;37942;53.218;6.548;2022-10-16T13:41:46;22.52;;;3.40;;
51915;SDS011;37942;53.218;6.548;2022-10-16T13:44:23;16.73;;;3.03;;
51915;SDS011;37942;53.218;6.548;2022-10-16T13:46:57;17.83;;;3.92;;
51915;SDS011;37942;53.218;6.548;2022-10-16T13:49:24;24.40;;;4.00;;
51915;SDS011;37942;53.218;6.548;2022-10-16T13:51:54;15.70;;;3.75;;
51915;SDS011;37942;53.218;6.548;2022-10-16T13:54:21;15.90;;;3.60;;
51915;SDS011;37942;53.218;6.548;2022-10-16T13:56:48;18.90;;;4.03;;
51915;SDS011;37942;53.218;6.548;2022-10-16T13:59:24;19.23;;;4.03;;
51915;SDS011;37942;53.218;6.548;2022-10-16T14:01:51;19.02;;;3.75;;
51915;SDS011;37942;53.218;6.548;2022-10-16T14:04:19;21.27;;;4.10;;
51915;SDS011;37942;53.218;6.548;2022-10-16T14:06:46;19.52;;;3.72;;
51915;SDS011;37942;53.218;6.548;2022-10-16T14:09:20;17.10;;;3.70;;
51915;SDS011;37942;53.218;6.548;2022-10-16T14:11:51;20.58;;;3.80;;
51915;SDS011;37942;53.218;6.548;2022-10-16T14:14:20;19.42;;;4.05;;
51915;SDS011;37942;53.218;6.548;2022-10-16T14:16:47;17.38;;;3.80;;
51915;SDS011;37942;53.218;6.548;2022-10-16T14:19:24;19.52;;;3.72;;
51915;SDS011;37942;53.218;6.548;2022-10-16T14:21:51;18.77;;;3.63;;
51915;SDS011;37942;53.218;6.548;2022-10-16T14:26:44;21.42;;;4.15;;
51915;SDS011;37942;53.218;6.548;2022-10-16T14:29:17;19.10;;;3.63;;
51915;SDS011;37942;53.218;6.548;2022-10-16T14:31:53;19.52;;;3.97;;
51915;SDS011;37942;53.218;6.548;2022-10-16T14:34:30;18.33;;;3.22;;
51915;SDS011;37942;53.218;6.548;2022-10-16T14:36:58;23.77;;;4.28;;
51915;SDS011;37942;53.218;6.548;2022-10-16T14:39:25;19.30;;;3.75;;
51915;SDS011;37942;53.218;6.548;2022-10-16T14:41:52;19.83;;;4.15;;
51915;SDS011;37942;53.218;6.548;2022-10-16T14:44:21;18.95;;;3.33;;
51915;SDS011;37942;53.218;6.548;2022-10-16T14:46:49;15.25;;;3.50;;
51915;SDS011;37942;53.218;6.548;2022-10-16T14:49:16;18.30;;;3.85;;
51915;SDS011;37942;53.218;6.548;2022-10-16T14:51:44;17.98;;;3.78;;
51915;SDS011;37942;53.218;6.548;2022-10-16T14:54:13;19.75;;;4.10;;
51915;SDS011;37942;53.218;6.548;2022-10-16T14:56:53;18.92;;;3.58;;
51915;SDS011;37942;53.218;6.548;2022-10-16T15:01:52;18.70;;;3.95;;
51915;SDS011;37942;53.218;6.548;2022-10-16T15:04:18;20.88;;;4.00;;
51915;SDS011;37942;53.218;6.548;2022-10-16T15:06:44;20.75;;;3.53;;
51915;SDS011;37942;53.218;6.548;2022-10-16T15:09:10;20.67;;;3.42;;
51915;SDS011;37942;53.218;6.548;2022-10-16T15:11:36;18.42;;;4.57;;
51915;SDS011;37942;53.218;6.548;2022-10-16T15:16:28;22.45;;;4.05;;
51915;SDS011;37942;53.218;6.548;2022-10-16T15:18:55;19.55;;;4.30;;
51915;SDS011;37942;53.218;6.548;2022-10-16T15:21:25;22.80;;;4.63;;
51915;SDS011;37942;53.218;6.548;2022-10-16T15:23:52;20.63;;;4.80;;
51915;SDS011;37942;53.218;6.548;2022-10-16T15:26:18;17.27;;;3.70;;
51915;SDS011;37942;53.218;6.548;2022-10-16T15:28:44;20.55;;;4.32;;
51915;SDS011;37942;53.218;6.548;2022-10-16T15:31:10;18.70;;;4.20;;
51915;SDS011;37942;53.218;6.548;2022-10-16T15:33:36;20.75;;;4.65;;
51915;SDS011;37942;53.218;6.548;2022-10-16T15:36:03;26.65;;;5.25;;
51915;SDS011;37942;53.218;6.548;2022-10-16T15:40:55;21.50;;;4.88;;
51915;SDS011;37942;53.218;6.548;2022-10-16T15:43:21;22.70;;;4.35;;
51915;SDS011;37942;53.218;6.548;2022-10-16T15:48:13;25.77;;;5.18;;
51915;SDS011;37942;53.218;6.548;2022-10-16T15:50:40;17.23;;;4.55;;
51915;SDS011;37942;53.218;6.548;2022-10-16T15:53:07;22.65;;;5.47;;
51915;SDS011;37942;53.218;6.548;2022-10-16T15:55:34;20.25;;;4.72;;
51915;SDS011;37942;53.218;6.548;2022-10-16T15:58:02;16.38;;;4.63;;
51915;SDS011;37942;53.218;6.548;2022-10-16T16:00:29;20.35;;;5.38;;
51915;SDS011;37942;53.218;6.548;2022-10-16T16:02:55;24.63;;;5.05;;
51915;SDS011;37942;53.218;6.548;2022-10-16T16:05:21;18.67;;;5.07;;
51915;SDS011;37942;53.218;6.548;2022-10-16T16:10:14;17.90;;;4.95;;
51915;SDS011;37942;53.218;6.548;2022-10-16T16:12:40;20.55;;;4.57;;
51915;SDS011;37942;53.218;6.548;2022-10-16T16:15:06;24.60;;;5.35;;
51915;SDS011;37942;53.218;6.548;2022-10-16T16:17:33;24.10;;;5.38;;
51915;SDS011;37942;53.218;6.548;2022-10-16T16:22:25;18.80;;;5.22;;
51915;SDS011;37942;53.218;6.548;2022-10-16T16:24:51;20.20;;;5.90;;
51915;SDS011;37942;53.218;6.548;2022-10-16T16:27:18;18.65;;;4.95;;
51915;SDS011;37942;53.218;6.548;2022-10-16T16:29:45;20.80;;;5.55;;
51915;SDS011;37942;53.218;6.548;2022-10-16T16:32:11;30.95;;;16.77;;
51915;SDS011;37942;53.218;6.548;2022-10-16T16:34:37;37.58;;;27.70;;
51915;SDS011;37942;53.218;6.548;2022-10-16T16:37:03;31.42;;;23.95;;
51915;SDS011;37942;53.218;6.548;2022-10-16T16:39:29;27.23;;;19.90;;
51915;SDS011;37942;53.218;6.548;2022-10-16T16:41:56;24.10;;;14.82;;
51915;SDS011;37942;53.218;6.548;2022-10-16T16:44:23;25.17;;;10.25;;
51915;SDS011;37942;53.218;6.548;2022-10-16T16:46:49;21.13;;;7.78;;
51915;SDS011;37942;53.218;6.548;2022-10-16T16:49:16;22.50;;;7.82;;
51915;SDS011;37942;53.218;6.548;2022-10-16T16:51:42;21.20;;;6.57;;
51915;SDS011;37942;53.218;6.548;2022-10-16T16:54:09;20.95;;;4.95;;
51915;SDS011;37942;53.218;6.548;2022-10-16T16:56:35;16.52;;;5.05;;
51915;SDS011;37942;53.218;6.548;2022-10-16T16:59:01;17.73;;;4.97;;
51915;SDS011;37942;53.218;6.548;2022-10-16T17:01:28;16.52;;;4.50;;
51915;SDS011;37942;53.218;6.548;2022-10-16T17:03:56;24.58;;;5.25;;
51915;SDS011;37942;53.218;6.548;2022-10-16T17:06:23;21.35;;;5.07;;